MSC Chiara — H3RT — position and weather

sailwx.info

Track history (hours):
 
Tides and Currents Weather Stations Pressure Air Temp Water Temp Dewpoint Dewpoint Depression Visibility Wind Speed Wind Dir Waves Ship Positions

MSC Chiara

Last reported at 2014-Oct-01 01:25 UTC. Time now 2014-Oct-21 03:48 UTC.
Position S 29°53' E 031°01'.
Warning: this ship's position is 20 days out of date.

Length 197 m; draft 10.2 m.

Type: Ship (hazmat cat A). MMSI: 352398000.

Date/timePositionNaut miles runAvg speedWind from/ knotsBaromVisibWave heightAir tempDewpointWater temp
2014-Oct-01 01:25S 29°53' E 031°01'0 0.0
2014-Sep-30 23:27S 29°53' E 031°01'0 0.0
2014-Sep-30 21:30S 29°53' E 031°01'0 0.4
2014-Sep-30 20:24S 29°53' E 031°02'5 5.4
2014-Sep-30 19:33S 29°50' E 031°06'1 1.2
2014-Sep-30 18:33S 29°51' E 031°07'2 2.1
2014-Sep-30 17:33S 29°51' E 031°09'2 2.4
2014-Sep-30 16:33S 29°50' E 031°07'8 8.0
2014-Sep-30 15:33S 29°57' E 031°11'1 0.9
2014-Sep-30 14:32S 29°56' E 031°10'7 6.9
2014-Sep-30 13:33S 29°50' E 031°10'2 1.7
2014-Sep-30 12:31S 29°48' E 031°08'6 6.2
2014-Sep-30 11:33S 29°42' E 031°10'5 3.4
2014-Sep-30 10:07S 29°38' E 031°12'0 0.0
2014-Sep-30 09:24S 29°38' E 031°12'0 0.0
2014-Sep-30 07:30S 29°38' E 031°12'0 0.0
2014-Sep-30 06:29S 29°38' E 031°12'0 0.0
2014-Sep-30 05:17S 29°38' E 031°12'0 0.0
2014-Sep-30 04:28S 29°38' E 031°12'0 0.0
2014-Sep-30 03:22S 29°38' E 031°12'0 0.0
2014-Sep-30 02:33S 29°38' E 031°12'0 0.0
2014-Sep-30 01:21S 29°38' E 031°12'0 0.0
2014-Sep-30 00:32S 29°38' E 031°12'0 0.0
2014-Sep-29 22:32S 29°38' E 031°12'0 0.0
2014-Sep-29 21:31S 29°38' E 031°12'0 0.0
2014-Sep-29 20:25S 29°38' E 031°12'0 0.0
2014-Sep-29 19:18S 29°38' E 031°12'0 0.0
2014-Sep-29 15:29S 29°38' E 031°12'0 0.1
2014-Sep-29 14:28S 29°38' E 031°12'0 0.0
2014-Sep-29 13:10S 29°38' E 031°12'0 0.0
2014-Sep-29 12:33S 29°38' E 031°12'0 0.0
2014-Sep-29 11:21S 29°38' E 031°12'0 0.0
2014-Sep-29 10:20S 29°38' E 031°12'0 0.0
2014-Sep-29 09:26S 29°38' E 031°12'0 0.0
2014-Sep-29 08:20S 29°38' E 031°12'0 0.0
2014-Sep-29 07:25S 29°38' E 031°12'0 0.0
2014-Sep-29 04:24S 29°38' E 031°12'0 0.0
2014-Sep-29 02:23S 29°38' E 031°12'0 0.0
2014-Sep-29 01:29S 29°38' E 031°12'0 0.0
2014-Sep-29 00:22S 29°38' E 031°12'0 0.0
2014-Sep-28 23:28S 29°38' E 031°12'0 0.0
2014-Sep-28 22:15S 29°38' E 031°12'0 0.0
2014-Sep-28 21:27S 29°38' E 031°12'0 0.0
2014-Sep-28 20:26S 29°38' E 031°12'0 0.0
2014-Sep-28 19:26S 29°38' E 031°12'0 0.0
2014-Sep-28 17:13S 29°38' E 031°12'0 0.0
2014-Sep-28 15:24S 29°38' E 031°12'0 0.0
2014-Sep-28 14:18S 29°38' E 031°12'0 0.1
2014-Sep-28 13:17S 29°38' E 031°12'0 0.0
2014-Sep-28 12:29S 29°38' E 031°12'0 0.0
2014-Sep-28 08:33S 29°38' E 031°13'0 0.0
2014-Sep-28 06:32S 29°38' E 031°13'0 0.0
2014-Sep-28 05:20S 29°38' E 031°12'0 0.0
2014-Sep-28 03:07S 29°38' E 031°13'0 0.0
2014-Sep-28 00:18S 29°38' E 031°12'0 0.0
2014-Sep-27 23:17S 29°38' E 031°12'0 0.0
2014-Sep-27 20:16S 29°38' E 031°13'0 0.0
2014-Sep-27 18:27S 29°38' E 031°13'0 0.0
2014-Sep-27 17:09S 29°38' E 031°12'0 0.0
2014-Sep-27 16:08S 29°38' E 031°12'0 0.0
2014-Sep-27 14:31S 29°38' E 031°13'0 0.0
2014-Sep-27 13:19S 29°38' E 031°12'0 0.0
2014-Sep-27 12:25S 29°38' E 031°12'0 0.0
2014-Sep-27 11:12S 29°38' E 031°12'0 0.0
2014-Sep-27 10:24S 29°38' E 031°12'0 0.0
2014-Sep-27 09:29S 29°38' E 031°12'0 0.0
2014-Sep-27 08:17S 29°38' E 031°12'0 0.0
2014-Sep-27 07:10S 29°38' E 031°12'0 0.0
2014-Sep-27 06:28S 29°38' E 031°12'0 0.0
2014-Sep-27 05:28S 29°38' E 031°12'0 0.1
2014-Sep-27 03:33S 29°38' E 031°12'0 0.0
2014-Sep-27 01:26S 29°38' E 031°12'0 0.0
2014-Sep-27 00:31S 29°38' E 031°12'0 0.0
2014-Sep-26 23:31S 29°38' E 031°12'0 0.0
2014-Sep-26 22:12S 29°38' E 031°12'0 0.0
2014-Sep-26 21:18S 29°38' E 031°12'0 0.0
2014-Sep-26 20:18S 29°38' E 031°12'0 0.0
2014-Sep-26 18:29S 29°38' E 031°12'0 0.0
2014-Sep-26 17:04S 29°38' E 031°12'0 0.1
2014-Sep-26 16:22S 29°38' E 031°12'0 0.1
2014-Sep-26 15:09S 29°38' E 031°12'0 0.0
2014-Sep-26 13:21S 29°38' E 031°12'0 0.0
2014-Sep-26 12:32S 29°38' E 031°12'0 0.0
2014-Sep-26 11:08S 29°38' E 031°12'0 0.0
2014-Sep-26 10:25S 29°38' E 031°12'0 0.0
2014-Sep-26 09:19S 29°38' E 031°12'0 0.0
2014-Sep-26 08:24S 29°38' E 031°12'0 0.1
2014-Sep-26 07:18S 29°38' E 031°12'0 0.1
2014-Sep-26 06:24S 29°38' E 031°12'0 0.0
2014-Sep-26 05:11S 29°38' E 031°12'0 0.1
2014-Sep-26 04:23S 29°38' E 031°12'0 0.0
2014-Sep-26 03:22S 29°38' E 031°12'0 0.0
2014-Sep-26 02:10S 29°38' E 031°12'0 0.0
2014-Sep-26 01:33S 29°38' E 031°12'0 0.0
2014-Sep-26 00:21S 29°38' E 031°12'0 0.0
2014-Sep-25 22:14S 29°38' E 031°12'0 0.0
2014-Sep-25 21:32S 29°38' E 031°12'0 0.0
2014-Sep-25 20:07S 29°38' E 031°12'0 0.0
2014-Sep-25 18:18S 29°38' E 031°12'0 0.0
2014-Sep-25 17:30S 29°38' E 031°12'0 0.0
2014-Sep-25 16:11S 29°38' E 031°12'1 1.0
2014-Sep-25 15:26S 29°38' E 031°13'5 5.8
2014-Sep-25 14:33S 29°36' E 031°19'  
Track history (hours):
 
Tides and Currents Weather Stations Pressure Air Temp Water Temp Dewpoint Dewpoint Depression Visibility Wind Speed Wind Dir Waves Ship Positions

MSC Chiara

Last reported at 2014-Oct-01 01:25 UTC. Time now 2014-Oct-21 03:48 UTC.
Position S 29°53' E 031°01'.
Warning: this ship's position is 20 days out of date.

Length 197 m; draft 10.2 m.

Type: Ship (hazmat cat A). MMSI: 352398000.

Date/timePositionNaut miles runAvg speedWind from/ knotsBaromVisibWave heightAir tempDewpointWater temp
2014-Oct-01 01:25S 29°53' E 031°01'0 0.0
2014-Sep-30 23:27S 29°53' E 031°01'0 0.0
2014-Sep-30 21:30S 29°53' E 031°01'0 0.4
2014-Sep-30 20:24S 29°53' E 031°02'5 5.4
2014-Sep-30 19:33S 29°50' E 031°06'1 1.2
2014-Sep-30 18:33S 29°51' E 031°07'2 2.1
2014-Sep-30 17:33S 29°51' E 031°09'2 2.4
2014-Sep-30 16:33S 29°50' E 031°07'8 8.0
2014-Sep-30 15:33S 29°57' E 031°11'1 0.9
2014-Sep-30 14:32S 29°56' E 031°10'7 6.9
2014-Sep-30 13:33S 29°50' E 031°10'2 1.7
2014-Sep-30 12:31S 29°48' E 031°08'6 6.2
2014-Sep-30 11:33S 29°42' E 031°10'5 3.4
2014-Sep-30 10:07S 29°38' E 031°12'0 0.0
2014-Sep-30 09:24S 29°38' E 031°12'0 0.0
2014-Sep-30 07:30S 29°38' E 031°12'0 0.0
2014-Sep-30 06:29S 29°38' E 031°12'0 0.0
2014-Sep-30 05:17S 29°38' E 031°12'0 0.0
2014-Sep-30 04:28S 29°38' E 031°12'0 0.0
2014-Sep-30 03:22S 29°38' E 031°12'0 0.0
2014-Sep-30 02:33S 29°38' E 031°12'0 0.0
2014-Sep-30 01:21S 29°38' E 031°12'0 0.0
2014-Sep-30 00:32S 29°38' E 031°12'0 0.0
2014-Sep-29 22:32S 29°38' E 031°12'0 0.0
2014-Sep-29 21:31S 29°38' E 031°12'0 0.0
2014-Sep-29 20:25S 29°38' E 031°12'0 0.0
2014-Sep-29 19:18S 29°38' E 031°12'0 0.0
2014-Sep-29 15:29S 29°38' E 031°12'0 0.1
2014-Sep-29 14:28S 29°38' E 031°12'0 0.0
2014-Sep-29 13:10S 29°38' E 031°12'0 0.0
2014-Sep-29 12:33S 29°38' E 031°12'0 0.0
2014-Sep-29 11:21S 29°38' E 031°12'0 0.0
2014-Sep-29 10:20S 29°38' E 031°12'0 0.0
2014-Sep-29 09:26S 29°38' E 031°12'0 0.0
2014-Sep-29 08:20S 29°38' E 031°12'0 0.0
2014-Sep-29 07:25S 29°38' E 031°12'0 0.0
2014-Sep-29 04:24S 29°38' E 031°12'0 0.0
2014-Sep-29 02:23S 29°38' E 031°12'0 0.0
2014-Sep-29 01:29S 29°38' E 031°12'0 0.0
2014-Sep-29 00:22S 29°38' E 031°12'0 0.0
2014-Sep-28 23:28S 29°38' E 031°12'0 0.0
2014-Sep-28 22:15S 29°38' E 031°12'0 0.0
2014-Sep-28 21:27S 29°38' E 031°12'0 0.0
2014-Sep-28 20:26S 29°38' E 031°12'0 0.0
2014-Sep-28 19:26S 29°38' E 031°12'0 0.0
2014-Sep-28 17:13S 29°38' E 031°12'0 0.0
2014-Sep-28 15:24S 29°38' E 031°12'0 0.0
2014-Sep-28 14:18S 29°38' E 031°12'0 0.1
2014-Sep-28 13:17S 29°38' E 031°12'0 0.0
2014-Sep-28 12:29S 29°38' E 031°12'0 0.0
2014-Sep-28 08:33S 29°38' E 031°13'0 0.0
2014-Sep-28 06:32S 29°38' E 031°13'0 0.0
2014-Sep-28 05:20S 29°38' E 031°12'0 0.0
2014-Sep-28 03:07S 29°38' E 031°13'0 0.0
2014-Sep-28 00:18S 29°38' E 031°12'0 0.0
2014-Sep-27 23:17S 29°38' E 031°12'0 0.0
2014-Sep-27 20:16S 29°38' E 031°13'0 0.0
2014-Sep-27 18:27S 29°38' E 031°13'0 0.0
2014-Sep-27 17:09S 29°38' E 031°12'0 0.0
2014-Sep-27 16:08S 29°38' E 031°12'0 0.0
2014-Sep-27 14:31S 29°38' E 031°13'0 0.0
2014-Sep-27 13:19S 29°38' E 031°12'0 0.0
2014-Sep-27 12:25S 29°38' E 031°12'0 0.0
2014-Sep-27 11:12S 29°38' E 031°12'0 0.0
2014-Sep-27 10:24S 29°38' E 031°12'0 0.0
2014-Sep-27 09:29S 29°38' E 031°12'0 0.0
2014-Sep-27 08:17S 29°38' E 031°12'0 0.0
2014-Sep-27 07:10S 29°38' E 031°12'0 0.0
2014-Sep-27 06:28S 29°38' E 031°12'0 0.0
2014-Sep-27 05:28S 29°38' E 031°12'0 0.1
2014-Sep-27 03:33S 29°38' E 031°12'0 0.0
2014-Sep-27 01:26S 29°38' E 031°12'0 0.0
2014-Sep-27 00:31S 29°38' E 031°12'0 0.0
2014-Sep-26 23:31S 29°38' E 031°12'0 0.0
2014-Sep-26 22:12S 29°38' E 031°12'0 0.0
2014-Sep-26 21:18S 29°38' E 031°12'0 0.0
2014-Sep-26 20:18S 29°38' E 031°12'0 0.0
2014-Sep-26 18:29S 29°38' E 031°12'0 0.0
2014-Sep-26 17:04S 29°38' E 031°12'0 0.1
2014-Sep-26 16:22S 29°38' E 031°12'0 0.1
2014-Sep-26 15:09S 29°38' E 031°12'0 0.0
2014-Sep-26 13:21S 29°38' E 031°12'0 0.0
2014-Sep-26 12:32S 29°38' E 031°12'0 0.0
2014-Sep-26 11:08S 29°38' E 031°12'0 0.0
2014-Sep-26 10:25S 29°38' E 031°12'0 0.0
2014-Sep-26 09:19S 29°38' E 031°12'0 0.0
2014-Sep-26 08:24S 29°38' E 031°12'0 0.1
2014-Sep-26 07:18S 29°38' E 031°12'0 0.1
2014-Sep-26 06:24S 29°38' E 031°12'0 0.0
2014-Sep-26 05:11S 29°38' E 031°12'0 0.1
2014-Sep-26 04:23S 29°38' E 031°12'0 0.0
2014-Sep-26 03:22S 29°38' E 031°12'0 0.0
2014-Sep-26 02:10S 29°38' E 031°12'0 0.0
2014-Sep-26 01:33S 29°38' E 031°12'0 0.0
2014-Sep-26 00:21S 29°38' E 031°12'0 0.0
2014-Sep-25 22:14S 29°38' E 031°12'0 0.0
2014-Sep-25 21:32S 29°38' E 031°12'0 0.0
2014-Sep-25 20:07S 29°38' E 031°12'0 0.0
2014-Sep-25 18:18S 29°38' E 031°12'0 0.0
2014-Sep-25 17:30S 29°38' E 031°12'0 0.0
2014-Sep-25 16:11S 29°38' E 031°12'1 1.0
2014-Sep-25 15:26S 29°38' E 031°13'5 5.8
2014-Sep-25 14:33S 29°36' E 031°19'  

Dump ship's entire track history